Time;durP1;ratioP1;P1;durP2;ratioP2;P2;SDS_P1;SDS_P2;PMS_P1;PMS_P2;Temp;Humidity;BMP_temperature;BMP_pressure;BME280_temperature;BME280_humidity;BME280_pressure;Samples;Min_cycle;Max_cycle;Signal;HPM_P1;HPM_P2
2022/03/23 00:01:10;;;;;;;5.20;4.70;;;;;;;5.56;56.56;99886.91;4106435;28;20655;-57
2022/03/23 00:03:15;;;;;;;5.95;5.45;;;;;;;5.55;56.99;99882.50;4105638;28;20258;-56
2022/03/23 00:05:18;;;;;;;4.63;4.20;;;;;;;5.51;57.11;99881.19;4103160;28;20203;-57
2022/03/23 00:07:20;;;;;;;5.35;4.43;;;;;;;5.47;57.14;99869.84;4121959;28;20214;-56
2022/03/23 00:09:22;;;;;;;5.20;4.80;;;;;;;5.46;57.06;99876.31;4105317;28;20218;-57
2022/03/23 00:11:44;;;;;;;4.50;4.18;;;;;;;5.38;57.36;99883.69;4105927;28;20265;-56
2022/03/23 00:13:46;;;;;;;4.50;4.10;;;;;;;5.32;57.73;99878.97;4123212;28;20218;-57
2022/03/23 00:15:48;;;;;;;7.82;4.22;;;;;;;5.29;57.48;99884.78;4104318;28;20211;-57
2022/03/23 00:17:50;;;;;;;4.32;3.92;;;;;;;5.28;57.63;99880.34;4110202;28;20277;-58
2022/03/23 00:19:52;;;;;;;4.60;4.10;;;;;;;5.24;57.85;99876.34;4108575;28;20214;-58
2022/03/23 00:21:54;;;;;;;4.30;3.90;;;;;;;5.17;57.83;99869.97;4123928;28;20674;-58
2022/03/23 00:23:56;;;;;;;4.10;3.78;;;;;;;5.12;57.82;99868.84;4111027;28;20672;-56
2022/03/23 00:26:01;;;;;;;5.18;4.63;;;;;;;5.09;58.02;99872.75;4125930;28;20217;-56
2022/03/23 00:28:07;;;;;;;4.82;4.50;;;;;;;5.12;57.96;99876.97;4108460;28;20219;-57
2022/03/23 00:30:10;;;;;;;4.13;3.70;;;;;;;5.12;58.16;99869.66;4108799;28;20214;-57
2022/03/23 00:32:14;;;;;;;5.35;4.95;;;;;;;5.11;58.24;99876.13;4108715;28;20234;-56
2022/03/23 00:34:16;;;;;;;4.80;4.35;;;;;;;5.12;57.76;99872.38;4125411;28;20256;-57
2022/03/23 00:36:18;;;;;;;4.90;4.45;;;;;;;5.08;57.86;99879.19;4111924;28;20298;-57
2022/03/23 00:38:20;;;;;;;5.88;5.28;;;;;;;5.04;57.85;99872.44;4123704;28;20245;-57
2022/03/23 00:40:22;;;;;;;7.68;5.10;;;;;;;5.01;58.22;99874.69;4106820;28;20211;-57
2022/03/23 00:42:24;;;;;;;8.23;4.80;;;;;;;5.01;57.87;99880.94;4125228;28;20210;-57
2022/03/23 00:44:25;;;;;;;5.13;4.72;;;;;;;4.97;58.47;99879.63;4112495;28;20207;-57
2022/03/23 00:46:30;;;;;;;4.47;4.07;;;;;;;4.91;58.31;99869.50;4109651;28;20695;-57
2022/03/23 00:48:32;;;;;;;5.38;4.88;;;;;;;4.89;58.07;99868.84;4125443;28;20306;-57
2022/03/23 00:50:34;;;;;;;4.38;3.97;;;;;;;4.80;58.26;99872.63;4111369;28;20268;-56
2022/03/23 00:52:37;;;;;;;4.57;4.18;;;;;;;4.73;58.26;99882.50;4113654;28;20203;-55
2022/03/23 00:54:39;;;;;;;6.15;5.63;;;;;;;4.72;58.57;99880.81;4110712;28;20290;-57
2022/03/23 00:56:40;;;;;;;4.72;4.32;;;;;;;4.72;58.43;99869.97;4109679;28;20262;-57
2022/03/23 00:58:42;;;;;;;4.55;4.15;;;;;;;4.68;58.54;99874.03;4112014;28;20227;-57
2022/03/23 01:00:45;;;;;;;4.32;3.85;;;;;;;4.61;58.75;99881.22;4112570;28;20281;-56
2022/03/23 01:02:47;;;;;;;5.43;4.90;;;;;;;4.52;58.96;99874.16;4111051;28;20214;-56
2022/03/23 01:04:49;;;;;;;5.88;3.85;;;;;;;4.50;59.05;99876.22;4125888;28;20297;-57
2022/03/23 01:06:54;;;;;;;5.47;5.00;;;;;;;4.47;59.21;99871.13;4111210;28;20376;-57
2022/03/23 01:08:58;;;;;;;4.65;4.25;;;;;;;4.48;58.88;99866.56;4124301;28;20332;-56
2022/03/23 01:11:01;;;;;;;4.28;3.88;;;;;;;4.37;59.02;99881.38;4111871;28;20270;-56
2022/03/23 01:13:03;;;;;;;9.55;4.95;;;;;;;4.36;59.12;99879.69;4124300;28;20205;-57
2022/03/23 01:15:07;;;;;;;5.47;4.97;;;;;;;4.41;59.43;99874.56;4120927;28;20210;-56
2022/03/23 01:17:09;;;;;;;5.88;4.30;;;;;;;4.42;59.62;99873.56;4121908;28;20312;-56
2022/03/23 01:19:12;;;;;;;4.07;3.78;;;;;;;4.46;59.13;99869.47;4104141;28;20250;-56
2022/03/23 01:21:13;;;;;;;5.43;4.85;;;;;;;4.45;59.41;99872.34;4104245;28;20271;-56
2022/03/23 01:23:15;;;;;;;4.82;4.53;;;;;;;4.40;59.43;99878.28;4106833;28;20765;-56
2022/03/23 01:25:18;;;;;;;4.18;3.88;;;;;;;4.34;59.21;99876.28;4121265;28;20209;-56
2022/03/23 01:27:20;;;;;;;4.13;3.75;;;;;;;4.34;59.50;99865.44;4107411;28;20708;-56
2022/03/23 01:29:21;;;;;;;5.75;4.60;;;;;;;4.39;59.94;99863.06;4102970;28;20244;-57
2022/03/23 01:31:23;;;;;;;5.15;4.28;;;;;;;4.34;59.44;99860.03;4111469;28;20237;-56
2022/03/23 01:33:25;;;;;;;8.10;5.25;;;;;;;4.39;59.46;99862.22;4111454;28;20215;-56
2022/03/23 01:35:27;;;;;;;6.93;4.90;;;;;;;4.37;59.90;99859.69;4124639;28;20202;-56
2022/03/23 01:37:29;;;;;;;4.20;3.88;;;;;;;4.31;59.73;99871.25;4125911;28;21175;-58
2022/03/23 01:39:30;;;;;;;5.35;4.93;;;;;;;4.30;59.48;99872.25;4111587;28;20230;-56
2022/03/23 01:41:36;;;;;;;4.43;4.03;;;;;;;4.27;60.13;99859.06;4122181;28;20230;-56
2022/03/23 01:43:41;;;;;;;5.43;4.22;;;;;;;4.27;59.95;99874.50;4109104;28;20210;-57
2022/03/23 01:45:43;;;;;;;5.25;3.35;;;;;;;4.23;59.66;99868.56;4128072;28;20687;-56
2022/03/23 01:47:45;;;;;;;4.72;4.28;;;;;;;4.23;60.16;99873.13;4125658;28;20288;-58
2022/03/23 01:49:52;;;;;;;4.63;4.22;;;;;;;4.15;60.27;99868.59;4111343;28;20294;-56
2022/03/23 01:51:57;;;;;;;4.25;3.85;;;;;;;4.11;60.28;99863.72;4123023;28;20225;-57
2022/03/23 01:53:59;;;;;;;5.00;4.53;;;;;;;4.08;59.90;99870.31;4109626;28;20219;-56
2022/03/23 01:56:00;;;;;;;5.50;5.00;;;;;;;4.03;60.17;99867.31;4107962;28;20273;-57
2022/03/23 01:58:02;;;;;;;4.05;3.75;;;;;;;3.98;59.90;99875.13;4109035;28;20685;-58
2022/03/23 02:00:06;;;;;;;5.55;4.60;;;;;;;3.93;60.53;99877.50;4124056;28;20818;-57
2022/03/23 02:02:08;;;;;;;7.55;5.05;;;;;;;3.91;60.36;99867.84;4102106;28;20875;-58
2022/03/23 02:04:10;;;;;;;4.53;4.22;;;;;;;3.86;60.07;99865.66;4121763;28;20313;-56
2022/03/23 02:06:12;;;;;;;4.85;4.47;;;;;;;3.78;60.64;99868.41;4121558;28;20206;-57
2022/03/23 02:08:14;;;;;;;3.95;3.65;;;;;;;3.71;60.54;99870.13;4121670;28;20206;-57
2022/03/23 02:10:19;;;;;;;5.18;4.65;;;;;;;3.68;61.24;99867.75;4122753;28;20250;-56
2022/03/23 02:12:21;;;;;;;6.32;5.75;;;;;;;3.68;60.92;99867.75;4108815;28;20203;-57
2022/03/23 02:14:23;;;;;;;5.28;4.78;;;;;;;3.61;61.29;99869.47;4121765;28;20209;-57
2022/03/23 02:16:24;;;;;;;4.65;3.88;;;;;;;3.63;60.69;99870.16;4123179;28;20209;-57
2022/03/23 02:18:26;;;;;;;3.88;3.58;;;;;;;3.60;60.97;99869.66;4107384;28;20210;-58
2022/03/23 02:20:28;;;;;;;6.05;5.28;;;;;;;3.61;61.11;99871.34;4107554;28;20762;-58
2022/03/23 02:22:30;;;;;;;4.50;4.20;;;;;;;3.56;61.41;99862.88;4106245;28;20226;-57
2022/03/23 02:24:33;;;;;;;4.70;4.30;;;;;;;3.57;61.14;99865.44;4125367;28;20541;-57
2022/03/23 02:26:35;;;;;;;4.68;4.28;;;;;;;3.58;61.31;99872.53;4108320;28;20238;-57
2022/03/23 02:28:36;;;;;;;5.22;4.82;;;;;;;3.56;61.08;99868.31;4107824;28;20373;-58
2022/03/23 02:30:38;;;;;;;5.57;5.03;;;;;;;3.51;60.93;99865.25;4110032;28;20226;-57
2022/03/23 02:32:40;;;;;;;5.53;5.07;;;;;;;3.50;60.91;99860.88;4110333;28;20261;-58
2022/03/23 02:34:41;;;;;;;5.82;5.22;;;;;;;3.44;61.15;99864.25;4110905;28;20289;-57
2022/03/23 02:36:44;;;;;;;5.03;4.50;;;;;;;3.38;61.63;99860.41;4124069;28;20296;-57
2022/03/23 02:38:46;;;;;;;7.03;4.38;;;;;;;3.32;61.11;99860.22;4105451;28;20211;-58
2022/03/23 02:40:49;;;;;;;5.07;4.68;;;;;;;3.32;60.92;99860.22;4090808;28;20230;-57
2022/03/23 02:42:50;;;;;;;4.43;4.00;;;;;;;3.28;62.04;99865.13;4121133;28;20714;-56
2022/03/23 02:44:52;;;;;;;5.30;4.82;;;;;;;3.29;61.87;99858.72;4107422;28;20219;-56
2022/03/23 02:46:54;;;;;;;14.50;6.28;;;;;;;3.32;61.26;99860.22;4109989;28;20644;-56
2022/03/23 02:48:55;;;;;;;6.43;5.38;;;;;;;3.30;61.55;99859.56;4111502;28;20210;-57
2022/03/23 02:50:57;;;;;;;5.57;5.03;;;;;;;3.32;61.54;99855.66;4106945;28;20246;-56
2022/03/23 03:02:51;;;;;;;5.90;4.38;;;;;;;3.19;61.69;99865.31;4107573;28;20217;-57
2022/03/23 03:04:53;;;;;;;9.10;4.78;;;;;;;3.16;61.86;99861.13;4104993;28;20210;-57
2022/03/23 03:06:57;;;;;;;4.70;4.30;;;;;;;3.14;61.94;99865.81;4104323;28;20211;-57
2022/03/23 03:09:00;;;;;;;4.25;3.85;;;;;;;3.13;61.91;99866.00;4121271;28;20208;-57
2022/03/23 03:11:02;;;;;;;6.07;5.43;;;;;;;3.12;62.26;99875.13;4122755;28;20260;-58
2022/03/23 03:13:03;;;;;;;6.10;5.43;;;;;;;3.10;62.21;99872.59;4108546;28;20234;-57
2022/03/23 03:15:05;;;;;;;5.78;5.28;;;;;;;3.12;62.34;99867.00;4108462;28;20206;-58
2022/03/23 03:17:07;;;;;;;7.13;5.35;;;;;;;3.11;61.96;99868.88;4107174;28;20210;-58
2022/03/23 03:19:10;;;;;;;4.78;4.32;;;;;;;3.07;62.07;99872.94;4124049;28;20226;-58
2022/03/23 03:21:13;;;;;;;4.45;4.05;;;;;;;3.04;61.65;99870.56;4110274;28;20730;-58
2022/03/23 03:23:15;;;;;;;5.18;4.68;;;;;;;2.99;62.37;99872.94;4121676;28;20225;-58
2022/03/23 03:25:17;;;;;;;5.75;5.18;;;;;;;2.96;61.75;99873.28;4105346;28;20207;-57
2022/03/23 03:27:19;;;;;;;4.43;4.13;;;;;;;2.96;62.04;99875.13;4125377;28;20281;-58
2022/03/23 03:29:23;;;;;;;5.85;5.35;;;;;;;2.93;61.79;99881.72;4106431;28;20241;-58
2022/03/23 03:31:24;;;;;;;5.20;4.70;;;;;;;2.88;61.80;99877.84;4123929;28;20711;-58
2022/03/23 03:33:26;;;;;;;6.32;5.32;;;;;;;2.86;62.57;99875.28;4125876;28;20218;-57
2022/03/23 03:35:28;;;;;;;5.65;5.13;;;;;;;2.88;62.29;99877.84;4090194;28;20222;-56
2022/03/23 03:37:30;;;;;;;5.00;4.35;;;;;;;2.88;62.57;99883.25;4106222;28;20814;-56
2022/03/23 03:39:32;;;;;;;5.18;4.78;;;;;;;2.85;62.31;99879.00;4125634;28;20222;-57
2022/03/23 03:41:34;;;;;;;5.03;4.18;;;;;;;2.77;62.27;99883.56;4111736;28;20226;-58
2022/03/23 03:43:37;;;;;;;5.57;5.00;;;;;;;2.73;62.76;99874.94;4124442;28;20202;-56
2022/03/23 03:45:40;;;;;;;4.72;4.32;;;;;;;2.68;62.55;99879.16;4125093;28;20237;-58
2022/03/23 03:47:42;;;;;;;5.07;4.63;;;;;;;2.68;63.11;99885.41;4124035;28;20206;-56
2022/03/23 03:49:44;;;;;;;5.15;4.75;;;;;;;2.67;62.98;99885.59;4121159;28;20213;-57
2022/03/23 03:51:46;;;;;;;6.03;5.50;;;;;;;2.65;62.82;99887.59;4126032;28;20268;-57
2022/03/23 03:53:48;;;;;;;7.47;4.95;;;;;;;2.61;62.49;99887.09;4128185;28;21112;-57
2022/03/23 03:55:49;;;;;;;5.07;4.68;;;;;;;2.60;62.86;99884.56;4126457;28;20210;-57
2022/03/23 03:57:51;;;;;;;4.57;4.28;;;;;;;2.59;62.74;99888.25;4113117;28;20305;-56
2022/03/23 03:59:52;;;;;;;5.95;5.32;;;;;;;2.59;63.52;99894.50;4110613;28;20226;-57
2022/03/23 04:01:54;;;;;;;4.43;4.13;;;;;;;2.58;62.77;99891.97;4126869;28;20222;-56
2022/03/23 04:03:56;;;;;;;5.15;4.68;;;;;;;2.66;62.71;99890.13;4112107;28;20242;-56
2022/03/23 04:05:58;;;;;;;5.07;4.68;;;;;;;2.52;63.38;99893.50;4111635;28;20210;-57
2022/03/23 04:08:00;;;;;;;5.90;4.35;;;;;;;2.49;63.59;99891.13;4126119;28;20210;-57
2022/03/23 04:10:05;;;;;;;4.22;3.85;;;;;;;2.48;63.66;99896.69;4108039;28;20207;-58
2022/03/23 04:12:08;;;;;;;4.53;4.13;;;;;;;2.50;63.25;99902.75;4090557;28;20977;-58
2022/03/23 04:14:10;;;;;;;5.47;5.07;;;;;;;2.46;63.50;99899.56;4124849;28;20214;-57
2022/03/23 04:16:12;;;;;;;4.43;4.07;;;;;;;2.44;63.29;99906.97;4123312;28;20305;-58
2022/03/23 04:18:14;;;;;;;5.97;4.40;;;;;;;2.43;63.72;99899.91;4124078;28;20221;-58
2022/03/23 04:20:16;;;;;;;4.57;4.22;;;;;;;2.42;63.24;99903.56;4102950;28;20220;-58
2022/03/23 04:22:18;;;;;;;4.63;4.22;;;;;;;2.39;62.89;99901.22;4126294;28;20229;-57
2022/03/23 04:24:19;;;;;;;4.70;4.30;;;;;;;2.36;63.21;99904.25;4125440;28;20234;-58
2022/03/23 04:26:21;;;;;;;5.20;4.80;;;;;;;2.33;63.24;99904.56;4106053;28;20234;-57
2022/03/23 04:28:23;;;;;;;4.53;4.13;;;;;;;2.32;62.98;99894.78;4109552;28;20215;-57
2022/03/23 04:30:33;;;;;;;5.78;5.15;;;;;;;2.30;63.33;99904.06;4112178;28;20207;-56
2022/03/23 04:32:35;;;;;;;4.40;4.07;;;;;;;2.29;63.33;99905.94;4125037;28;20317;-57
2022/03/23 04:34:36;;;;;;;5.07;4.60;;;;;;;2.31;63.55;99912.00;4111907;28;20203;-57
2022/03/23 04:36:38;;;;;;;5.28;4.88;;;;;;;2.29;63.86;99903.22;4126886;28;20288;-57
2022/03/23 04:38:40;;;;;;;4.50;4.20;;;;;;;2.29;63.96;99907.78;4124299;28;20293;-57
2022/03/23 04:40:41;;;;;;;5.88;5.38;;;;;;;2.23;63.34;99909.28;4092533;28;20330;-57
2022/03/23 04:42:44;;;;;;;6.80;4.97;;;;;;;2.21;63.48;99908.56;4127780;28;20206;-58
2022/03/23 04:44:46;;;;;;;5.00;4.53;;;;;;;2.18;63.38;99917.03;4111386;28;20265;-58
2022/03/23 04:46:48;;;;;;;4.78;4.38;;;;;;;2.19;63.94;99918.69;4111457;28;20242;-57
2022/03/23 04:48:49;;;;;;;4.45;4.07;;;;;;;2.11;63.73;99920.53;4112540;28;20242;-57
2022/03/23 04:50:51;;;;;;;7.70;5.40;;;;;;;2.10;64.04;99914.28;4111103;28;20250;-56
2022/03/23 04:52:53;;;;;;;4.90;4.53;;;;;;;2.10;64.19;99914.28;4124221;28;20287;-56
2022/03/23 04:54:56;;;;;;;5.82;5.30;;;;;;;2.11;64.44;99918.69;4123099;28;20206;-57
2022/03/23 04:56:58;;;;;;;7.55;4.82;;;;;;;2.10;63.63;99922.38;4109739;28;20234;-56
2022/03/23 04:58:59;;;;;;;5.45;4.95;;;;;;;2.10;63.94;99917.00;4094768;28;20227;-57
2022/03/23 05:01:02;;;;;;;3.97;3.65;;;;;;;2.11;64.30;99915.97;4104248;28;20242;-56
2022/03/23 05:03:04;;;;;;;5.03;4.57;;;;;;;2.06;63.80;99917.44;4110085;28;20663;-56
2022/03/23 05:05:07;;;;;;;4.18;3.88;;;;;;;2.05;64.08;99918.47;4128310;28;20214;-56
2022/03/23 05:07:09;;;;;;;5.50;5.10;;;;;;;1.98;63.99;99925.50;4110587;28;20249;-57
2022/03/23 05:09:11;;;;;;;4.43;4.03;;;;;;;1.98;64.12;99936.31;4113708;28;20203;-57
2022/03/23 05:11:14;;;;;;;7.47;4.70;;;;;;;1.96;64.45;99923.00;4112259;28;20814;-56
2022/03/23 05:13:16;;;;;;;4.45;4.13;;;;;;;1.94;64.36;99930.41;4111997;28;20202;-57
2022/03/23 05:15:19;;;;;;;5.07;4.57;;;;;;;1.92;64.58;99927.03;4112505;28;20346;-59
2022/03/23 05:17:21;;;;;;;5.05;4.55;;;;;;;1.91;64.11;99930.72;4110661;28;20257;-56
2022/03/23 05:19:26;;;;;;;5.50;4.63;;;;;;;1.90;64.56;99931.75;4127992;28;20214;-55
2022/03/23 05:21:28;;;;;;;5.15;4.65;;;;;;;1.89;64.24;99937.28;4113176;28;20238;-56
2022/03/23 05:23:30;;;;;;;13.25;4.45;;;;;;;1.89;64.57;99934.59;4108487;28;20302;-55
2022/03/23 05:25:31;;;;;;;3.75;3.47;;;;;;;1.90;64.89;99929.03;4110170;28;20223;-58
2022/03/23 05:27:35;;;;;;;6.15;5.43;;;;;;;1.88;64.88;99933.72;4108763;28;20306;-57
2022/03/23 05:29:36;;;;;;;7.63;4.93;;;;;;;1.81;64.41;99935.38;4112182;28;20253;-57
2022/03/23 05:31:38;;;;;;;4.43;4.13;;;;;;;1.82;64.44;99937.06;4127540;28;20226;-57
2022/03/23 05:33:40;;;;;;;6.43;5.82;;;;;;;1.76;64.34;99932.34;4108397;28;20753;-57
2022/03/23 05:35:42;;;;;;;4.78;4.47;;;;;;;1.76;65.07;99937.72;4127765;28;20688;-57
2022/03/23 05:37:44;;;;;;;6.05;5.55;;;;;;;1.77;64.53;99939.44;4126454;28;20349;-57
2022/03/23 05:39:46;;;;;;;5.30;4.80;;;;;;;1.79;64.47;99942.81;4123223;28;20297;-57
2022/03/23 05:41:48;;;;;;;6.38;5.85;;;;;;;1.80;65.15;99939.09;4124929;28;20240;-59
2022/03/23 05:43:50;;;;;;;5.68;5.10;;;;;;;1.83;64.53;99944.19;4106377;28;20242;-57
2022/03/23 05:45:51;;;;;;;3.90;3.60;;;;;;;1.86;64.74;99943.84;4125297;28;20210;-58
2022/03/23 05:47:53;;;;;;;5.45;5.00;;;;;;;1.90;64.20;99945.22;4108007;28;20641;-57
2022/03/23 05:49:55;;;;;;;5.50;5.10;;;;;;;1.92;64.72;99940.50;4111235;28;20632;-57
2022/03/23 05:51:58;;;;;;;7.18;6.00;;;;;;;1.90;64.63;99945.22;4110187;28;20937;-57
2022/03/23 05:54:02;;;;;;;6.53;5.50;;;;;;;1.85;64.76;99944.00;4124361;28;21143;-58
2022/03/23 05:56:08;;;;;;;6.38;4.88;;;;;;;1.85;65.04;99947.56;4110204;28;20912;-59
2022/03/23 05:58:10;;;;;;;5.18;4.68;;;;;;;1.86;64.52;99954.66;4110240;28;20203;-57
2022/03/23 06:00:12;;;;;;;5.63;5.22;;;;;;;1.88;64.52;99952.63;4107758;28;20257;-58
2022/03/23 06:02:14;;;;;;;5.32;5.00;;;;;;;1.90;64.90;99953.31;4109598;28;20301;-58
2022/03/23 06:04:16;;;;;;;5.28;4.88;;;;;;;1.89;64.79;99953.47;4115234;28;20767;-58
2022/03/23 06:06:18;;;;;;;5.05;4.65;;;;;;;1.92;64.41;99959.41;4127849;28;20671;-58
2022/03/23 06:08:21;;;;;;;4.68;4.32;;;;;;;1.92;64.68;99954.00;4113642;28;20778;-57
2022/03/23 06:10:23;;;;;;;6.05;5.55;;;;;;;1.94;65.25;99946.59;4104082;28;20207;-57
2022/03/23 06:12:25;;;;;;;5.13;4.70;;;;;;;1.99;64.76;99951.50;4111016;28;20636;-57
2022/03/23 06:14:26;;;;;;;5.07;4.57;;;;;;;2.05;64.71;99954.41;4122131;28;20202;-57
2022/03/23 06:16:28;;;;;;;4.28;3.97;;;;;;;2.12;65.27;99954.59;4123649;28;20268;-58
2022/03/23 06:18:30;;;;;;;5.75;5.25;;;;;;;2.21;64.72;99959.88;4123305;28;20316;-58
2022/03/23 06:20:32;;;;;;;6.53;5.07;;;;;;;2.34;65.34;99960.28;4106364;28;20277;-57
2022/03/23 06:22:34;;;;;;;6.95;6.07;;;;;;;2.43;65.08;99961.16;4111483;28;20210;-56
2022/03/23 06:24:36;;;;;;;5.60;5.07;;;;;;;2.42;64.94;99963.00;4112649;28;20840;-54
2022/03/23 06:26:38;;;;;;;5.78;5.38;;;;;;;2.31;64.88;99966.00;4118982;28;21040;-53
2022/03/23 06:28:41;;;;;;;5.72;5.03;;;;;;;2.40;65.49;99965.03;4124198;28;20578;-54
2022/03/23 06:30:42;;;;;;;5.15;4.75;;;;;;;2.72;65.48;99959.72;4128048;28;20222;-54
2022/03/23 06:32:44;;;;;;;5.68;5.03;;;;;;;2.85;66.11;99965.50;4127318;28;20264;-53
2022/03/23 06:34:46;;;;;;;7.55;6.45;;;;;;;2.66;66.29;99968.50;4123315;28;20260;-54
2022/03/23 06:36:47;;;;;;;6.38;5.15;;;;;;;3.15;66.45;99967.56;4112542;28;20211;-54
2022/03/23 06:38:50;;;;;;;5.20;4.75;;;;;;;3.52;65.13;99970.63;4126262;28;20627;-56
2022/03/23 06:40:52;;;;;;;5.88;5.43;;;;;;;4.93;65.06;99975.91;4107797;28;20277;-54
2022/03/23 06:42:53;;;;;;;5.10;4.63;;;;;;;5.80;63.04;99965.44;4124176;28;22118;-53
2022/03/23 06:44:55;;;;;;;5.38;4.88;;;;;;;6.05;60.07;99981.31;4110398;28;20235;-53
2022/03/23 06:46:57;;;;;;;5.35;4.88;;;;;;;5.29;59.80;99972.44;4126043;28;20289;-54
2022/03/23 06:48:58;;;;;;;5.57;5.07;;;;;;;4.83;60.95;99980.75;4108160;28;20238;-53
2022/03/23 06:51:00;;;;;;;6.15;5.55;;;;;;;5.24;61.63;99979.47;4107435;28;20257;-53
2022/03/23 06:53:02;;;;;;;5.03;4.63;;;;;;;5.43;59.83;99978.97;4124098;28;20218;-53
2022/03/23 06:55:05;;;;;;;7.43;6.65;;;;;;;5.42;60.81;99982.72;4109300;28;20290;-52
2022/03/23 06:57:06;;;;;;;6.60;5.57;;;;;;;6.08;59.81;99980.09;4126516;28;20257;-52
2022/03/23 06:59:16;;;;;;;4.85;4.45;;;;;;;5.53;58.84;99979.56;4125297;28;20206;-52
2022/03/23 07:01:18;;;;;;;4.95;4.38;;;;;;;6.57;58.78;99987.50;4107256;28;20233;-53
2022/03/23 07:03:20;;;;;;;11.95;5.53;;;;;;;7.48;57.90;99987.75;4109435;28;20215;-53
2022/03/23 07:05:22;;;;;;;6.32;5.82;;;;;;;8.32;55.28;99987.66;4109972;28;20262;-53
2022/03/23 07:07:38;;;;;;;5.57;5.07;;;;;;;8.47;54.61;99996.56;4110444;28;20322;-53
2022/03/23 07:09:41;;;;;;;5.22;4.75;;;;;;;8.29;53.86;99988.06;4110632;28;20672;-53
2022/03/23 07:11:46;;;;;;;5.65;5.15;;;;;;;8.14;54.31;99990.00;4108714;28;20245;-55
2022/03/23 07:13:48;;;;;;;6.07;5.57;;;;;;;8.63;53.12;99993.50;4127352;28;20197;-53
2022/03/23 07:15:58;;;;;;;5.97;5.47;;;;;;;8.18;54.05;100002.19;4110065;28;20222;-53
2022/03/23 07:18:01;;;;;;;5.75;5.35;;;;;;;8.16;54.00;99993.38;4112355;28;20210;-53
2022/03/23 07:20:03;;;;;;;5.72;5.20;;;;;;;8.63;52.60;99996.25;4130078;28;20210;-53
2022/03/23 07:22:05;;;;;;;5.28;4.78;;;;;;;8.40;53.34;99996.53;4092741;28;20266;-52
2022/03/23 07:24:07;;;;;;;4.70;4.32;;;;;;;8.20;54.06;99997.41;4111239;28;20683;-52
2022/03/23 07:26:09;;;;;;;6.03;4.95;;;;;;;7.97;54.17;99988.63;4097146;28;20275;-53
2022/03/23 07:28:11;;;;;;;5.57;5.13;;;;;;;7.78;54.21;99989.28;4107948;28;20649;-53
2022/03/23 07:30:13;;;;;;;5.60;5.10;;;;;;;7.85;54.37;99985.59;4121793;28;20336;-53
2022/03/23 07:32:14;;;;;;;5.43;5.03;;;;;;;8.77;53.98;99989.81;4120605;28;20329;-55
2022/03/23 07:34:19;;;;;;;5.78;4.75;;;;;;;9.27;51.19;99989.38;4105344;28;20240;-54
2022/03/23 07:36:20;;;;;;;5.63;5.22;;;;;;;8.74;51.47;99998.41;4107132;28;20296;-52
2022/03/23 07:38:22;;;;;;;4.80;4.47;;;;;;;8.66;52.87;99990.38;4123684;28;20292;-52
2022/03/23 07:40:24;;;;;;;10.38;6.50;;;;;;;9.12;50.42;99999.63;4107254;28;20214;-52
2022/03/23 07:42:26;;;;;;;4.78;4.28;;;;;;;8.95;51.50;99992.84;4105030;28;20249;-54
2022/03/23 07:44:29;;;;;;;12.57;6.20;;;;;;;10.54;49.38;99995.38;4122657;28;20206;-52
2022/03/23 07:46:31;;;;;;;7.35;6.40;;;;;;;10.44;48.19;99986.75;4123342;28;20293;-52
2022/03/23 07:48:33;;;;;;;7.05;6.45;;;;;;;9.81;49.35;99985.47;4124708;28;20328;-52
2022/03/23 07:50:34;;;;;;;5.68;5.28;;;;;;;9.67;49.83;99991.16;4120582;28;20206;-53
2022/03/23 07:52:36;;;;;;;7.80;4.75;;;;;;;11.86;46.64;99996.25;4122721;28;20237;-53
2022/03/23 07:54:38;;;;;;;6.25;5.00;;;;;;;11.84;46.37;99993.72;4107155;28;20227;-55
2022/03/23 07:56:40;;;;;;;4.80;4.40;;;;;;;11.15;47.37;99990.09;4102147;28;20247;-54
2022/03/23 07:58:41;;;;;;;5.47;5.07;;;;;;;10.63;48.68;99997.66;4112084;28;20235;-52
2022/03/23 08:00:45;;;;;;;5.60;5.18;;;;;;;11.92;45.79;99998.91;4111970;28;20325;-52
2022/03/23 08:02:50;;;;;;;5.82;5.40;;;;;;;12.16;46.35;100000.84;4113909;28;20942;-53
2022/03/23 08:04:59;;;;;;;5.28;4.78;;;;;;;13.16;44.78;100000.47;4116052;28;20257;-54
2022/03/23 08:07:02;;;;;;;5.30;4.82;;;;;;;11.54;46.01;100000.84;4111545;28;20268;-53
2022/03/23 08:09:05;;;;;;;5.63;5.20;;;;;;;12.96;45.32;99997.97;4112115;28;20242;-51
2022/03/23 08:11:11;;;;;;;6.10;5.53;;;;;;;13.59;44.08;99999.25;4113220;28;20235;-52
2022/03/23 08:13:22;;;;;;;6.43;5.93;;;;;;;13.43;44.15;99999.91;4127044;28;20308;-52
2022/03/23 08:15:29;;;;;;;5.15;4.57;;;;;;;13.19;45.29;100003.63;4129210;28;20206;-52
2022/03/23 08:17:30;;;;;;;5.60;5.00;;;;;;;13.31;44.88;100004.50;4112643;28;20215;-52
2022/03/23 08:19:32;;;;;;;4.63;4.25;;;;;;;12.88;45.83;99995.50;4111059;28;20245;-51
2022/03/23 08:21:34;;;;;;;6.38;5.82;;;;;;;13.73;43.90;100000.75;4110592;28;20255;-51
2022/03/23 08:23:37;;;;;;;5.72;4.57;;;;;;;13.84;43.44;100008.19;4123470;28;20293;-50
2022/03/23 08:25:42;;;;;;;6.43;5.78;;;;;;;14.49;42.24;100001.63;4120248;28;20324;-51
2022/03/23 08:27:43;;;;;;;7.68;5.75;;;;;;;14.76;41.75;100002.00;4105415;28;20214;-50
2022/03/23 08:29:45;;;;;;;5.82;5.32;;;;;;;13.42;44.23;100003.72;4120116;28;20217;-52
2022/03/23 08:31:47;;;;;;;6.03;5.15;;;;;;;13.80;44.09;99995.97;4116090;28;20230;-50
2022/03/23 08:33:48;;;;;;;6.60;6.00;;;;;;;14.88;42.34;99989.88;4119365;28;20305;-50
2022/03/23 08:35:50;;;;;;;6.07;5.53;;;;;;;14.85;41.79;99995.03;4125687;28;20297;-53
2022/03/23 08:37:52;;;;;;;5.85;5.25;;;;;;;14.06;42.54;99984.56;4097780;28;20258;-51
2022/03/23 08:39:54;;;;;;;5.90;5.50;;;;;;;14.50;42.70;99992.28;4127022;28;20202;-53
2022/03/23 08:42:01;;;;;;;6.43;5.85;;;;;;;15.35;40.67;99985.13;4125518;28;20226;-50
2022/03/23 08:44:03;;;;;;;6.05;5.35;;;;;;;15.74;40.03;99996.13;4125199;28;20289;-51
2022/03/23 08:46:08;;;;;;;8.18;6.10;;;;;;;14.97;40.18;99999.44;4113265;28;20269;-50
2022/03/23 08:48:10;;;;;;;6.13;5.53;;;;;;;14.56;41.24;99996.03;4113661;28;20202;-53
2022/03/23 08:50:21;;;;;;;6.68;6.07;;;;;;;13.62;41.59;99987.78;4110483;28;20219;-51
2022/03/23 08:52:24;;;;;;;5.10;4.65;;;;;;;13.31;43.05;99990.75;4128340;28;20193;-52
2022/03/23 08:54:25;;;;;;;5.75;5.25;;;;;;;14.82;41.55;99988.09;4096355;28;20211;-54
2022/03/23 08:56:27;;;;;;;6.97;6.38;;;;;;;15.74;39.42;99989.75;4112228;28;20381;-51
2022/03/23 08:58:29;;;;;;;6.65;5.97;;;;;;;15.04;39.06;99986.34;4110390;28;20249;-52
2022/03/23 09:00:32;;;;;;;6.72;6.07;;;;;;;15.01;38.75;99984.09;4111629;28;20226;-52
2022/03/23 09:02:34;;;;;;;5.80;5.20;;;;;;;16.19;39.01;99983.16;4130235;28;20222;-52
2022/03/23 09:04:44;;;;;;;5.43;4.57;;;;;;;15.83;38.92;99982.75;4112756;28;20230;-52
2022/03/23 09:06:46;;;;;;;5.35;4.85;;;;;;;16.34;38.75;99990.84;4111246;28;20222;-50
2022/03/23 09:08:59;;;;;;;7.18;6.47;;;;;;;15.79;39.82;99987.94;4129713;28;20217;-50
2022/03/23 09:11:07;;;;;;;6.43;5.80;;;;;;;17.15;38.32;99989.06;4112184;28;20226;-50
2022/03/23 09:13:09;;;;;;;6.53;6.03;;;;;;;17.42;37.40;99987.22;4112230;28;20269;-51
2022/03/23 09:15:15;;;;;;;7.90;6.88;;;;;;;16.11;39.08;99985.47;4125540;28;20253;-51
2022/03/23 09:17:18;;;;;;;7.97;6.65;;;;;;;16.89;37.58;99989.81;4110706;28;20632;-50
2022/03/23 09:19:20;;;;;;;6.90;6.20;;;;;;;17.85;36.77;99984.41;4110535;28;20228;-50
2022/03/23 09:21:23;;;;;;;7.65;6.95;;;;;;;17.76;36.50;99980.41;4111696;28;20234;-52
2022/03/23 09:23:25;;;;;;;8.10;6.70;;;;;;;18.37;36.04;99985.47;4112997;28;20203;-51
2022/03/23 09:25:31;;;;;;;6.32;5.72;;;;;;;18.00;36.38;99982.63;4113266;28;20210;-50
2022/03/23 09:27:38;;;;;;;7.50;6.80;;;;;;;17.31;35.59;99988.19;4097494;28;20207;-53
2022/03/23 09:29:45;;;;;;;7.88;6.28;;;;;;;16.96;37.36;99986.88;4113669;28;20625;-50
2022/03/23 09:31:47;;;;;;;7.55;6.82;;;;;;;16.39;36.96;99983.50;4113355;28;20274;-51
2022/03/23 09:33:49;;;;;;;7.95;6.63;;;;;;;17.08;37.18;99982.88;4110575;28;20218;-50
2022/03/23 09:35:52;;;;;;;9.48;6.90;;;;;;;17.41;36.68;99988.31;4127735;28;20210;-52
2022/03/23 09:38:06;;;;;;;6.85;6.18;;;;;;;18.01;35.76;99983.47;4114290;28;20237;-53
2022/03/23 09:40:10;;;;;;;6.78;6.03;;;;;;;17.97;36.30;99977.59;4114274;28;20685;-50
2022/03/23 09:42:12;;;;;;;7.28;6.05;;;;;;;18.76;35.11;99987.72;4110581;28;20225;-51
2022/03/23 09:44:15;;;;;;;8.00;7.10;;;;;;;18.65;34.54;99974.88;4129008;28;20237;-49
2022/03/23 09:46:27;;;;;;;7.80;6.82;;;;;;;19.09;33.62;99972.66;4131176;28;20257;-51
2022/03/23 09:48:34;;;;;;;6.65;6.05;;;;;;;18.84;34.11;99978.91;4125114;28;20213;-51
2022/03/23 09:50:44;;;;;;;7.15;6.55;;;;;;;18.91;35.00;99978.69;4114764;28;20928;-50
2022/03/23 09:52:46;;;;;;;7.43;6.55;;;;;;;19.48;33.98;99968.41;4109101;28;20700;-50